地図

経路データ

SID SEASON NUMBER BASIN SUBBASIN NAME ISO_TIME NATURE LAT LON WMO_WIND WMO_PRES WMO_AGENCY TRACK_TYPE DIST2LAND LANDFALL IFLAG USA_AGENCY USA_ATCF_ID USA_LAT USA_LON USA_RECORD USA_STATUS USA_WIND USA_PRES USA_SSHS USA_R34_NE USA_R34_SE USA_R34_SW USA_R34_NW USA_R50_NE USA_R50_SE USA_R50_SW USA_R50_NW USA_R64_NE USA_R64_SE USA_R64_SW USA_R64_NW USA_POCI USA_ROCI USA_RMW USA_EYE TOKYO_LAT TOKYO_LON TOKYO_GRADE TOKYO_WIND TOKYO_PRES TOKYO_R50_DIR TOKYO_R50_LONG TOKYO_R50_SHORT TOKYO_R30_DIR TOKYO_R30_LONG TOKYO_R30_SHORT TOKYO_LAND CMA_LAT CMA_LON CMA_CAT CMA_WIND CMA_PRES HKO_LAT HKO_LON HKO_CAT HKO_WIND HKO_PRES NEWDELHI_LAT NEWDELHI_LON NEWDELHI_GRADE NEWDELHI_WIND NEWDELHI_PRES NEWDELHI_CI NEWDELHI_DP NEWDELHI_POCI REUNION_LAT REUNION_LON REUNION_TYPE REUNION_WIND REUNION_PRES REUNION_TNUM REUNION_CI REUNION_RMW REUNION_R34_NE REUNION_R34_SE REUNION_R34_SW REUNION_R34_NW REUNION_R50_NE REUNION_R50_SE REUNION_R50_SW REUNION_R50_NW REUNION_R64_NE REUNION_R64_SE REUNION_R64_SW REUNION_R64_NW BOM_LAT BOM_LON BOM_TYPE BOM_WIND BOM_PRES BOM_TNUM BOM_CI BOM_RMW BOM_R34_NE BOM_R34_SE BOM_R34_SW BOM_R34_NW BOM_R50_NE BOM_R50_SE BOM_R50_SW BOM_R50_NW BOM_R64_NE BOM_R64_SE BOM_R64_SW BOM_R64_NW BOM_ROCI BOM_POCI BOM_EYE BOM_POS_METHOD BOM_PRES_METHOD NADI_LAT NADI_LON NADI_CAT NADI_WIND NADI_PRES WELLINGTON_LAT WELLINGTON_LON WELLINGTON_WIND WELLINGTON_PRES DS824_LAT DS824_LON DS824_STAGE DS824_WIND DS824_PRES TD9636_LAT TD9636_LON TD9636_STAGE TD9636_WIND TD9636_PRES TD9635_LAT TD9635_LON TD9635_WIND TD9635_PRES TD9635_ROCI NEUMANN_LAT NEUMANN_LON NEUMANN_CLASS NEUMANN_WIND NEUMANN_PRES MLC_LAT MLC_LON MLC_CLASS MLC_WIND MLC_PRES USA_GUST BOM_GUST BOM_GUST_PER REUNION_GUST REUNION_GUST_PER USA_SEAHGT USA_SEARAD_NE USA_SEARAD_SE USA_SEARAD_SW USA_SEARAD_NW STORM_SPEED STORM_DIR
1975014S11091 1975 6 SI WA DEBORAH:ROBYN 1975-01-14 00:00:00 TS -11.2000 91.1000 25 1004 bom main 1369 1362 ______O_____O_ -1 -11.2000 91.1000 20 25 1004 1.50000 -11.2000 91.1000 TC 20 1004 3 132
1975014S11091 1975 6 SI WA DEBORAH:ROBYN 1975-01-14 03:00:00 TS -11.3163 91.2300 25 1004 bom main 1371 1364 ______O_____P_ -1 -11.3000 91.2000 20 25 1004 1.50000 -11.3325 91.2600 TC 22 1003 4 136
1975014S11091 1975 6 SI WA DEBORAH:ROBYN 1975-01-14 06:00:00 TS -11.4571 91.3571 25 1003 bom main 1375 1375 ______O__O__O_ -1 -11.5000 91.4000 20 25 1003 1.50000 -11.2000 91.1000 TC 20 1004 -11.5000 91.4000 TC 25 1003 4 146
1975014S11091 1975 6 SI WA DEBORAH:ROBYN 1975-01-14 09:00:00 TS -11.6375 91.4550 25 1003 bom main 1377 1377 ______O__P__P_ -1 -11.7000 91.5000 20 25 1003 1.50000 -11.3325 91.2600 TC 22 1003 -11.7275 91.5075 TC 25 1002 4 155
1975014S11091 1975 6 SI WA DEBORAH:ROBYN 1975-01-14 12:00:00 TS -11.8636 91.5455 25 1002 bom main 1404 1398 ______O__O__O_ -1 -12.0000 91.6000 20 25 1002 2.00000 -11.5000 91.4000 TC 25 1003 -12.0000 91.6000 TC 25 1002 5 159
1975014S11091 1975 6 SI WA DEBORAH:ROBYN 1975-01-14 15:00:00 TS -12.1067 91.6359 25 1001 bom main 1416 1416 ______O__P__P_ -1 -12.3000 91.7000 20 25 1001 2.00000 -11.7275 91.5075 TC 25 1002 -12.2925 91.7000 TC 27 1001 6 161
1975014S11091 1975 6 SI WA DEBORAH:ROBYN 1975-01-14 18:00:00 TS -12.4000 91.7333 25 1000 bom main 1437 1431 ______O__O__O_ -1 -12.6000 91.8000 20 25 1000 2.00000 -12.0000 91.6000 TC 25 1002 -12.6000 91.8000 TC 30 1000 6 160
1975014S11091 1975 6 SI WA DEBORAH:ROBYN 1975-01-14 21:00:00 TS -12.6617 91.8383 25 1000 bom main 1459 1454 ______O__P__P_ -1 -12.8000 91.9000 20 25 1000 2.00000 -12.2925 91.7000 TC 27 1001 -12.8925 91.9150 TC 30 999 6 162
1975014S11091 1975 6 SI WA DEBORAH:ROBYN 1975-01-15 00:00:00 TS -13.0000 91.9333 30 999 bom main 1482 1482 ______O__O__O_ -1 -13.2000 92.0000 20 30 999 2.50000 -12.6000 91.8000 TC 30 1000 -13.2000 92.0000 TC 30 999 7 165
1975014S11091 1975 6 SI WA DEBORAH:ROBYN 1975-01-15 03:00:00 TS -13.3117 92.0200 30 999 bom main 1505 1505 ______O__P__P_ -1 -13.5000 92.1000 20 30 999 2.50000 -12.8925 91.9150 TC 30 999 -13.5425 92.0449 TC 32 998 7 174
1975014S11091 1975 6 SI WA DEBORAH:ROBYN 1975-01-15 06:00:00 TS -13.6667 92.0000 30 997 bom main 1544 1544 ______O__O__O_ -1 -13.9000 92.0000 20 30 997 2.50000 -13.2000 92.0000 TC 30 999 -13.9000 92.0000 TC 35 997 7 190
1975014S11091 1975 6 SI WA DEBORAH:ROBYN 1975-01-15 09:00:00 TS -14.0000 91.8967 35 995 bom main 1578 1578 ______O__P__P_ -1 -14.2000 91.8000 30 35 995 3.00000 -13.5425 92.0449 TC 32 998 -14.2575 91.8450 TC 37 995 8 200
1975014S11091 1975 6 SI WA DEBORAH:ROBYN 1975-01-15 12:00:00 TS -14.3667 91.7333 40 994 bom main 1628 1628 ______O__O__O_ -1 -14.6000 91.6000 30 40 994 3.00000 -13.9000 92.0000 TC 35 997 -14.6000 91.6000 TC 40 994 8 210
1975014S11091 1975 6 SI WA DEBORAH:ROBYN 1975-01-15 15:00:00 TS -14.6883 91.4892 40 992 bom main 1667 1667 ______O__P__P_ -1 -14.9000 91.3000 30 40 992 3.00000 -14.2575 91.8450 TC 37 995 -14.9075 91.3224 TC 42 992 7 211
1975014S11091 1975 6 SI WA DEBORAH:ROBYN 1975-01-15 18:00:00 TS -14.9600 91.3600 40 991 bom main 1702 1702 O_____O__OO_O_ jtwc_sh SH141975 -14.8000 92.0000 -1 -15.2000 91.0000 30 40 991 3.00000 -14.6000 91.6000 TC 40 994 -14.8000 92.0000 7 -15.2000 91.0000 TC 45 991 6 221
1975014S11091 1975 6 SI WA DEBORAH:ROBYN 1975-01-15 21:00:00 TS -15.1544 91.0728 45 990 bom main 1737 1737 P_____O__PP_P_ SH141975 -14.8502 91.5000 -1 -15.5000 90.6000 30 45 990 3.00000 -14.9075 91.3224 TC 42 992 -14.8446 91.4954 7 -15.5150 90.6575 TC 47 989 7 241
1975014S11091 1975 6 SI WA DEBORAH:ROBYN 1975-01-16 00:00:00 TS -15.2987 90.7323 50 988 bom main 1769 1769 O_____O__OP_O_ jtwc_sh SH141975 -14.9000 91.0000 -1 -15.8000 90.3000 30 50 988 3.50000 -15.2000 91.0000 TC 45 991 -14.8909 90.9926 7 -15.8000 90.3000 TC 50 988 7 251
1975014S11091 1975 6 SI WA DEBORAH:ROBYN 1975-01-16 03:00:00 TS -15.3977 90.3527 50 987 bom main 1795 1795 P_____O__PP_P_ SH141975 -14.9499 90.5000 -1 -16.0000 90.0000 30 50 987 3.50000 -15.5150 90.6575 TC 47 989 -14.9418 90.4935 7 -16.0299 89.9649 TC 52 986 8 253
1975014S11091 1975 6 SI MM DEBORAH:ROBYN 1975-01-16 06:00:00 TS -15.5333 89.9167 50 985 bom main 1834 1834 O_____O__OO_O_ jtwc_sh SH141975 -15.0000 90.0000 -1 -16.2000 89.6000 30 50 985 3.50000 -15.8000 90.3000 TC 50 988 -15.0000 90.0000 2 -16.2000 89.6000 TC 55 985 9 255
1975014S11091 1975 6 SI MM DEBORAH:ROBYN 1975-01-16 09:00:00 TS -15.6316 89.4547 55 983 bom main 1867 1867 P_____O__PP_P_ SH141975 -15.0424 89.4924 -1 -16.3000 89.1000 30 55 983 4.00000 -16.0299 89.9649 TC 52 986 -15.0675 89.5137 2 -16.3075 89.1648 TC 57 983 9 258
1975014S11091 1975 6 SI MM DEBORAH:ROBYN 1975-01-16 12:00:00 TS -15.7237 89.0058 55 981 bom main 1907 1907 O_____O__OP_O_ jtwc_sh SH141975 -15.1000 89.0000 -1 -16.4000 88.7000 30 55 981 4.00000 -16.2000 89.6000 TC 55 985 -15.1421 89.0350 2 -16.4000 88.7000 TC 60 981 9 256
1975014S11091 1975 6 SI MM DEBORAH:ROBYN 1975-01-16 15:00:00 TS -15.8476 88.5569 60 979 bom main 1941 1941 P_____O__PP_P_ SH141975 -15.1999 88.5425 -1 -16.6000 88.3000 30 60 979 4.00000 -16.3075 89.1648 TC 57 983 -15.2207 88.5637 2 -16.5575 88.2276 TC 62 978 9 255
1975014S11091 1975 6 SI MM DEBORAH:ROBYN 1975-01-16 18:00:00 TS -15.9500 88.1000 65 976 bom main 1983 1991 O_____O__OO_O_ jtwc_sh SH141975 -15.3000 88.1000 -1 -16.7000 87.8000 40 65 976 4.50000 -16.4000 88.7000 TC 60 981 -15.3000 88.1000 2 -16.7000 87.8000 TC 65 976 8 260
1975014S11091 1975 6 SI MM DEBORAH:ROBYN 1975-01-16 21:00:00 TS -15.9903 87.7153 65 974 bom main 2018 2018 P_____O__PP_P_ SH141975 -15.3499 87.6499 -1 -16.6000 87.6000 40 65 974 4.50000 -16.5575 88.2276 TC 62 978 -15.3422 87.6422 2 -16.7421 87.5221 TC 67 974 8 260
1975014S11091 1975 6 SI MM DEBORAH:ROBYN 1975-01-17 00:00:00 TS -16.0816 87.2986 70 973 bom main 2053 2053 O_____O__OP_O_ jtwc_sh SH141975 -15.4000 87.2000 -1 -16.8000 87.2000 40 70 973 4.50000 -16.7000 87.8000 TC 65 976 -15.3896 87.1916 2 -16.8000 87.2000 TC 70 973 9 257
1975014S11091 1975 6 SI MM DEBORAH:ROBYN 1975-01-17 03:00:00 TS -16.1878 86.8366 70 971 bom main 2096 2096 P_____O__PP_P_ SH141975 -15.4699 86.7499 -1 -17.0000 86.6000 40 70 971 4.50000 -16.7421 87.5221 TC 67 974 -15.4672 86.7452 2 -16.9776 86.6526 TC 72 970 9 255
1975014S11091 1975 6 SI MM DEBORAH:ROBYN 1975-01-17 06:00:00 TS -16.3333 86.3500 75 968 bom main 2133 2140 O_____O__OO_O_ jtwc_sh SH141975 -15.6000 86.3000 -1 -17.2000 86.0000 40 75 968 4.50000 -16.8000 87.2000 TC 70 973 -15.6000 86.3000 2 -17.2000 86.0000 TC 75 968 10 250
1975014S11091 1975 6 SI MM DEBORAH:ROBYN 1975-01-17 09:00:00 TS -16.5431 85.8113 80 966 bom main 2192 2192 P_____O__PP_P_ SH141975 -15.8199 85.8500 -1 -17.4000 85.3000 40 80 966 5.00000 -16.9776 86.6526 TC 72 970 -15.8416 85.8507 2 -17.3998 85.3648 TC 77 966 11 246
1975014S11091 1975 6 SI MM DEBORAH:ROBYN 1975-01-17 12:00:00 TS -16.7891 85.2668 80 964 bom main 2253 2253 O_____O__OP_O_ jtwc_sh SH141975 -16.1000 85.4000 -1 -17.6000 84.7000 40 80 964 5.00000 4 -17.2000 86.0000 TC 75 968 -16.1346 85.4009 2 -17.6000 84.7000 TC 80 964 11 246
1975014S11091 1975 6 SI MM DEBORAH:ROBYN 1975-01-17 15:00:00 TS -17.0152 84.7267 80 966 bom main 2313 2313 P_____O__PP_P_ SH141975 -16.4224 84.9501 -1 -17.8000 84.0000 40 80 966 5.00000 -17.3998 85.3648 TC 77 966 -16.4354 84.9506 2 -17.8077 83.9626 TC 77 966 11 247
1975014S11091 1975 6 SI MM DEBORAH:ROBYN 1975-01-17 18:00:00 TS -17.2182 84.2091 75 968 bom main 2366 2366 O_____O__OO_O_ jtwc_sh SH141975 -16.7000 84.5000 -1 -18.0000 83.3000 40 75 968 4.50000 -17.6000 84.7000 TC 80 964 -16.7000 84.5000 2 -18.0000 83.3000 TC 75 968 10 251
1975014S11091 1975 6 SI MM DEBORAH:ROBYN 1975-01-17 21:00:00 TS -17.3380 83.7269 70 971 bom main 2411 2411 P_____O__PP_P_ SH141975 -16.8224 84.0497 -1 -18.1000 82.5000 40 70 971 4.50000 -17.8072 84.0149 TC 77 966 -16.8675 84.0695 2 -18.1798 82.7575 TC 72 970 9 257
1975014S11091 1975 6 SI MM DEBORAH:ROBYN 1975-01-18 00:00:00 TS -17.4188 83.3273 70 973 bom main 2449 2449 O________OP_O_ jtwc_sh SH141975 -16.9000 83.6000 -1 -18.0000 83.3000 TC 75 968 -16.9941 83.6365 2 -18.3000 82.5000 TC 70 973 8 255
1975014S11091 1975 6 SI MM DEBORAH:ROBYN 1975-01-18 03:00:00 TS -17.5371 82.9645 70 975 bom main 2480 2480 P________PP_P_ SH141975 -17.0498 83.1650 -1 -18.1650 82.5424 TC 72 970 -17.0986 83.1852 2 -18.3225 82.7649 TC 67 7 251
1975014S11091 1975 6 SI MM DEBORAH:ROBYN 1975-01-18 06:00:00 TS -17.6571 82.6000 65 978 bom main 2526 2526 O____O___OO_O_ jtwc_sh SH141975 -17.2000 82.7000 -1 -18.0000 83.0000 3 9.90000 -18.3000 81.8000 TC 70 973 -17.2000 82.7000 2 -18.3000 83.0000 TC 65 9 255
1975014S11091 1975 6 SI MM DEBORAH:ROBYN 1975-01-18 09:00:00 TS -17.7564 82.0909 main 2567 2512 P____P___PP_P_ SH141975 -17.2999 82.1723 -1 -18.1228 82.4950 3 -18.4071 81.1348 TC 65 975 -17.3290 82.1609 2 -18.2628 82.6121 TC 65 10 258
1975014S11091 1975 6 SI MM DEBORAH:ROBYN 1975-01-18 12:00:00 TS -17.8752 81.5283 main 2502 2446 O____O___OP_O_ jtwc_sh SH141975 -17.4000 81.6000 -1 -18.3000 82.0000 99 9.90000 -18.5000 80.5000 TC 60 978 -17.4574 81.5874 2 -18.3000 82.0000 TC 65 11 254
1975014S11091 1975 6 SI MM DEBORAH:ROBYN 1975-01-18 15:00:00 TS -18.0610 80.9805 main 2446 2382 P____P___PP_P_ SH141975 -17.5500 81.0001 -1 -18.5572 81.5151 99 -18.5922 79.8573 TC 57 980 -17.5821 80.9952 2 -18.5347 81.5153 TC 65 11 252
1975014S11091 1975 6 SI MM DEBORAH:ROBYN 1975-01-18 18:00:00 TS -18.2333 80.4000 main 2382 2328 O____O___OO_O_ jtwc_sh SH141975 -17.7000 80.4000 -1 -18.8000 81.0000 99 9.90000 -18.7000 79.2000 TC 55 982 -17.7000 80.4000 2 -18.8000 81.0000 TC 65 11 256
1975014S11091 1975 6 SI MM DEBORAH:ROBYN 1975-01-18 21:00:00 TS -18.3342 79.8229 main 2317 2264 P____P___PP_P_ SH141975 -17.8072 79.8498 -1 -18.8769 80.4590 99 -18.8423 78.5075 TC 55 983 -17.7947 79.8123 2 -18.8769 80.4590 TC 65 11 260
1975014S11091 1975 6 SI MM DEBORAH:ROBYN 1975-01-19 00:00:00 TS -18.4234 79.2655 reunion main 2264 2187 O____O___OP_O_ jtwc_sh SH141975 -17.9000 79.3000 -1 -19.0000 79.8000 99 9.90000 -19.0000 77.8000 TC 55 985 -17.8847 79.2268 2 -19.0000 79.8000 TC 65 12 256
1975014S11091 1975 6 SI MM DEBORAH:ROBYN 1975-01-19 03:00:00 TS -18.6110 78.6081 main 2187 2121 P____P___PP_P_ SH141975 -17.9925 78.6924 -1 -19.4085 78.8791 99 -19.1530 77.0977 TC 52 986 -17.9823 78.6529 2 -19.4085 78.8791 TC 50 13 253
1975014S11091 1975 6 SI MM DEBORAH:ROBYN 1975-01-19 06:00:00 TS -18.8048 77.9810 reunion main 2121 2078 O____O___OO_O_ jtwc_sh SH141975 -18.1000 78.1000 -1 -19.8000 78.0000 3 9.90000 -19.3000 76.4000 TC 50 988 -18.1000 78.1000 2 -19.8000 78.0000 TC 35 11 254
1975014S11091 1975 6 SI MM DEBORAH:ROBYN 1975-01-19 09:00:00 TS -18.9060 77.5443 main 2068 2025 P____P____P_P_ SH141975 -18.2347 77.5849 -1 -19.9016 77.4967 3 TC -18.2572 77.5583 2 -19.9016 77.4967 TC 50 9 257
1975014S11091 1975 6 SI MM DEBORAH:ROBYN 1975-01-19 12:00:00 TS -19.0069 77.0881 reunion main 2025 1971 O____O____P_O_ jtwc_sh SH141975 -18.4000 77.1000 -1 -19.9000 77.1000 99 9.90000 -18.4346 77.0403 2 -19.9000 77.1000 TC 65 9 256
1975014S11091 1975 6 SI MM DEBORAH:ROBYN 1975-01-19 15:00:00 TS -19.1379 76.5763 main 1971 1916 P____P____P_P_ SH141975 -18.6000 76.5776 -1 -19.9347 76.5872 99 -18.6198 76.5521 2 -19.9347 76.5872 TC 62 10 254
1975014S11091 1975 6 SI MM DEBORAH:ROBYN 1975-01-19 18:00:00 TS -19.2800 76.0600 reunion main 1916 1863 O____O____O_O_ jtwc_sh SH141975 -18.8000 76.1000 -1 -20.0000 76.0000 99 9.90000 -18.8000 76.1000 2 -20.0000 76.0000 TC 60 10 253
1975014S11091 1975 6 SI MM DEBORAH:ROBYN 1975-01-19 21:00:00 TS -19.4274 75.5780 main 1863 1808 P____P____P_P_ SH141975 -18.9572 75.7348 -1 -20.1273 75.3374 99 -18.9677 75.7454 2 -20.1273 75.3374 TC 62 10 252
1975014S11091 1975 6 SI MM DEBORAH:ROBYN 1975-01-20 00:00:00 TS -19.5855 75.0834 reunion main 1808 1754 O____O____P_O_ jtwc_sh SH141975 -19.1000 75.4000 -1 -20.3000 74.6000 99 9.90000 -19.1275 75.4167 2 -20.3000 74.6000 TC 65 10 251
1975014S11091 1975 6 SI MM DEBORAH:ROBYN 1975-01-20 03:00:00 TS -19.7637 74.5401 main 1744 1691 P____P____P_P_ SH141975 -19.2571 75.0524 -1 -20.5154 73.7704 99 -19.2736 75.0548 2 -20.5154 73.7704 TC 65 11 252
1975014S11091 1975 6 SI MM DEBORAH:ROBYN 1975-01-20 06:00:00 TS -19.9200 73.9600 reunion main 1691 1628 O____O____O_O_ jtwc_sh SH141975 -19.4000 74.6000 -1 -20.7000 73.0000 3 9.90000 -19.4000 74.6000 2 -20.7000 73.0000 TC 65 11 258
1975014S11091 1975 6 SI MM DEBORAH:ROBYN 1975-01-20 09:00:00 TS -20.0097 73.3538 main 1628 1564 P____P____P_P_ SH141975 -19.5151 73.9525 -1 -20.7644 72.4546 3 -19.4897 73.9549 2 -20.7644 72.4546 TC 65 12 263
1975014S11091 1975 6 SI MM DEBORAH:ROBYN 1975-01-20 12:00:00 TS -20.0719 72.7234 reunion main 1554 1491 O____O____P_O_ jtwc_sh SH141975 -19.6000 73.2000 -1 -20.8000 72.0000 99 9.90000 -19.5593 73.2168 2 -20.8000 72.0000 TC 65 12 264
1975014S11091 1975 6 SI MM DEBORAH:ROBYN 1975-01-20 15:00:00 TS -20.1448 72.0630 main 1491 1428 P____P____P_P_ SH141975 -19.6500 72.4348 -1 -20.8999 71.5001 99 -19.6240 72.4453 2 -20.8999 71.5001 TC 65 12 263
1975014S11091 1975 6 SI MM DEBORAH:ROBYN 1975-01-20 18:00:00 TS -20.2200 71.4200 reunion main 1418 1365 O____O____O_O_ jtwc_sh SH141975 -19.7000 71.7000 -1 -21.0000 71.0000 99 9.90000 -19.7000 71.7000 2 -21.0000 71.0000 TC 65 12 263
1975014S11091 1975 6 SI MM DEBORAH:ROBYN 1975-01-20 21:00:00 TS -20.2946 70.8436 main 1355 1302 P____P____P_P_ SH141975 -19.7846 71.0774 -1 -21.0574 70.4999 99 -19.7891 71.0635 2 -21.0574 70.4999 TC 65 11 261
1975014S11091 1975 6 SI MM DEBORAH:ROBYN 1975-01-21 00:00:00 TS -20.3792 70.2923 reunion main 1302 1250 O____O____P_O_ jtwc_sh SH141975 -19.9000 70.5000 -1 -21.1000 70.0000 99 9.90000 -19.8959 70.4615 2 -21.1000 70.0000 TC 65 11 261
1975014S11091 1975 6 SI MM DEBORAH:ROBYN 1975-01-21 03:00:00 TS -20.4678 69.7386 main 1240 1187 P____P____P_P_ SH141975 -20.0273 69.8998 -1 -21.1273 69.5072 99 -20.0298 69.8789 2 -21.1273 69.5072 TC 65 11 258
1975014S11091 1975 6 SI MM DEBORAH:ROBYN 1975-01-21 06:00:00 TS -20.6000 69.1800 reunion main 1187 1125 O____O____O_O_ jtwc_sh SH141975 -20.2000 69.3000 -1 -21.2000 69.0000 3 9.90000 -20.2000 69.3000 2 -21.2000 69.0000 TC 65 11 252
1975014S11091 1975 6 SI MM DEBORAH:ROBYN 1975-01-21 09:00:00 TS -20.8128 68.6021 main 1125 1063 P____P____P_P_ SH141975 -20.4348 68.7000 -1 -21.3923 68.4653 3 -20.4099 68.6800 2 -21.3923 68.4653 TC 65 12 248
1975014S11091 1975 6 SI MM DEBORAH:ROBYN 1975-01-21 12:00:00 TS -21.0510 68.0126 reunion main 1064 1002 O____O____P_O_ jtwc_sh SH141975 -20.7000 68.1000 -1 -21.6000 67.9000 99 9.90000 -20.6549 68.0628 2 -21.6000 67.9000 TC 65 12 249
1975014S11091 1975 6 SI MM DEBORAH:ROBYN 1975-01-21 15:00:00 TS -21.2473 67.4156 main 1002 953 P____P____P_P_ SH141975 -20.9424 67.4848 -1 -21.7147 67.3222 99 -20.9225 67.4642 2 -21.7147 67.3222 TC 65 12 251
1975014S11091 1975 6 SI MM DEBORAH:ROBYN 1975-01-21 18:00:00 TS -21.4400 66.8200 reunion main 942 894 O____O____O_O_ jtwc_sh SH141975 -21.2000 66.9000 -1 -21.8000 66.7000 99 9.90000 -21.2000 66.9000 2 -21.8000 66.7000 TC 65 12 249
1975014S11091 1975 6 SI MM DEBORAH:ROBYN 1975-01-21 21:00:00 TS -21.6589 66.2350 main 885 838 P____P____P_P_ SH141975 -21.4998 66.3774 -1 -21.9000 66.0074 99 -21.4949 66.4052 2 -21.9000 66.0074 TC 65 12 248
1975014S11091 1975 6 SI MM DEBORAH:ROBYN 1975-01-22 00:00:00 TS -21.8786 65.6685 reunion main 838 790 O____O____P_O_ jtwc_sh SH141975 -21.8000 65.9000 -1 -22.0000 65.3000 99 9.90000 -21.7932 65.9424 2 -22.0000 65.3000 TC 65 11 247
1975014S11091 1975 6 SI MM DEBORAH:ROBYN 1975-01-22 03:00:00 TS -22.0888 65.1277 main 782 738 P____P____P_P_ SH141975 -22.0797 65.4574 -1 -22.1074 64.6200 99 -22.0699 65.4835 2 -22.1074 64.6200 TC 65 11 249
1975014S11091 1975 6 SI MM DEBORAH:ROBYN 1975-01-22 06:00:00 TS -22.2600 64.6000 reunion main 738 689 O____O____O_O_ jtwc_sh SH141975 -22.3000 65.0000 -1 -22.2000 64.0000 4 9.90000 -22.3000 65.0000 2 -22.2000 64.0000 TC 65 10 255
1975014S11091 1975 6 SI MM DEBORAH:ROBYN 1975-01-22 09:00:00 TS -22.3558 64.0733 main 693 644 P____P____P_P_ SH141975 -22.4224 64.4722 -1 -22.2420 63.4847 4 -22.4502 64.4527 2 -22.2420 63.4847 TC 67 10 260
1975014S11091 1975 6 SI MM DEBORAH:ROBYN 1975-01-22 12:00:00 TS -22.4305 63.5357 reunion main 635 591 O____O____P_O_ jtwc_sh SH141975 -22.5000 63.9000 -1 -22.3000 63.0000 99 9.90000 -22.5523 63.8787 2 -22.3000 63.0000 TC 70 10 260
1975014S11091 1975 6 SI MM DEBORAH:ROBYN 1975-01-22 15:00:00 TS -22.5425 62.9641 main 591 539 P____P____P_P_ SH141975 -22.5999 63.2999 -1 -22.4423 62.4651 99 -22.6282 63.2903 2 -22.4423 62.4651 TC 72 11 258
1975014S11091 1975 6 SI MM DEBORAH:ROBYN 1975-01-22 18:00:00 TS -22.6600 62.3800 reunion main 544 498 O____O____O_O_ jtwc_sh SH141975 -22.7000 62.7000 -1 -22.6000 61.9000 99 9.90000 -22.7000 62.7000 2 -22.6000 61.9000 TC 75 11 258
1975014S11091 1975 6 SI MM DEBORAH:ROBYN 1975-01-22 21:00:00 TS -22.7582 61.8222 main 495 452 P____P____P_P_ SH141975 -22.7997 62.1499 -1 -22.7074 61.3073 99 -22.7768 62.1963 2 -22.7074 61.3073 TC 75 11 260
1975014S11091 1975 6 SI MM DEBORAH:ROBYN 1975-01-23 00:00:00 TS -22.8516 61.2564 reunion main 458 409 O____O____P_O_ jtwc_sh SH141975 -22.9000 61.6000 -1 -22.8000 60.7000 99 9.90000 -22.8580 61.6821 2 -22.8000 60.7000 TC 75 11 260
1975014S11091 1975 6 SI MM DEBORAH:ROBYN 1975-01-23 03:00:00 TS -22.9456 60.6901 main 409 373 P____P____P_P_ SH141975 -22.9841 61.0595 -1 -22.8996 60.1149 99 -22.9604 61.1020 2 -22.8996 60.1149 TC 72 11 259
1975014S11091 1975 6 SI MM DEBORAH:ROBYN 1975-01-23 06:00:00 TS -23.0600 60.0400 reunion main 375 344 O____O____O_O_ jtwc_sh SH141975 -23.1000 60.4000 -1 -23.0000 59.5000 4 9.90000 -23.1000 60.4000 2 -23.0000 59.5000 TC 70 14 259
1975014S11091 1975 6 SI MM DEBORAH:ROBYN 1975-01-23 09:00:00 TS -23.2105 59.2231 main 339 323 P____P____P_P_ SH141975 -23.2773 59.5248 -1 -23.0926 58.7999 4 -23.3125 59.4661 2 -23.0926 58.7999 TC 67 16 258
1975014S11091 1975 6 SI MM DEBORAH:ROBYN 1975-01-23 12:00:00 TS -23.3909 58.3227 reunion main 330 310 O____O____P_O_ jtwc_sh SH141975 -23.5000 58.5000 -1 -23.2000 58.1000 99 9.90000 -23.5546 58.4132 2 -23.2000 58.1000 TC 65 17 257
1975014S11091 1975 6 SI MM DEBORAH:ROBYN 1975-01-23 15:00:00 TS -23.6016 57.4258 main 305 285 P____P____P_P_ SH141975 -23.7657 57.3707 -1 -23.3415 57.5297 99 -23.7937 57.3284 2 -23.3415 57.5297 TC 62 17 256
1975014S11091 1975 6 SI MM DEBORAH:ROBYN 1975-01-23 18:00:00 TS -23.8000 56.5400 reunion main 283 277 O____O____O_O_ jtwc_sh SH141975 -24.0000 56.3000 -1 -23.5000 56.9000 99 9.90000 -24.0000 56.3000 2 -23.5000 56.9000 TC 60 16 258
1975014S11091 1975 6 SI MM DEBORAH:ROBYN 1975-01-23 21:00:00 TS -23.9374 55.6983 main 279 279 P____P____P_P_ SH141975 -24.1211 55.5043 -1 -23.6583 56.0077 99 -24.1280 55.4673 2 -23.6583 56.0077 TC 60 15 261
1975014S11091 1975 6 SI MM DEBORAH:ROBYN 1975-01-24 00:00:00 TS -24.0450 54.9005 reunion main 299 299 O____O____P_O_ jtwc_sh SH141975 -24.2000 54.8000 -1 -23.8000 55.1000 99 9.90000 -24.2249 54.7023 2 -23.8000 55.1000 TC 60 14 262
1975014S11091 1975 6 SI MM DEBORAH:ROBYN 1975-01-24 03:00:00 TS -24.1412 54.1810 main 332 332 P____P____P_P_ SH141975 -24.2920 54.0222 -1 -23.9062 54.4496 99 -24.3096 53.9613 2 -23.9062 54.4496 TC 57 13 262
1975014S11091 1975 6 SI MM DEBORAH:ROBYN 1975-01-24 06:00:00 MX -24.2400 53.4400 reunion main 378 378 O____O____O_O_ jtwc_sh SH141975 -24.4000 53.2000 -1 -24.0000 53.8000 4 9.90000 -24.4000 53.2000 2 -24.0000 53.8000 EX 55 15 262
1975014S11091 1975 6 SI MM DEBORAH:ROBYN 1975-01-24 09:00:00 MX -24.3552 52.5713 main 443 424 P____P____P_P_ SH141975 -24.5499 52.3077 -1 -24.0773 52.9518 4 -24.5218 52.3377 2 -24.0773 52.9518 EX 52 16 261
1975014S11091 1975 6 SI MM DEBORAH:ROBYN 1975-01-24 12:00:00 MX -24.4900 51.6500 reunion main 424 340 O____O____P_O_ jtwc_sh SH141975 -24.7000 51.4000 -1 -24.2000 52.0000 99 9.90000 -24.6500 51.4502 2 -24.2000 52.0000 EX 50 17 260
1975014S11091 1975 6 SI MM DEBORAH:ROBYN 1975-01-24 15:00:00 MX -24.6553 50.7296 main 333 258 P____P____P_P_ SH141975 -24.8071 50.5272 -1 -24.4421 51.0155 99 -24.7780 50.5626 2 -24.4421 51.0155 EX 47 17 259
1975014S11091 1975 6 SI MM DEBORAH:ROBYN 1975-01-24 18:00:00 MX -24.8200 49.8200 reunion main 249 177 O____O____O_O_ jtwc_sh SH141975 -24.9000 49.7000 -1 -24.7000 50.0000 99 9.90000 -24.9000 49.7000 2 -24.7000 50.0000 EX 45 16 260
1975014S11091 1975 6 SI MM DEBORAH:ROBYN 1975-01-24 21:00:00 MX -24.9415 48.9438 main 167 101 P____P____P_P_ SH141975 -24.9993 48.9423 -1 -24.8499 48.9692 99 -25.0093 48.8958 2 -24.8499 48.9692 EX 42 16 261
1975014S11091 1975 6 SI MM DEBORAH:ROBYN 1975-01-25 00:00:00 MX -25.0625 48.1039 reunion main 101 30 O____O____P_O_ jtwc_sh SH141975 -25.1000 48.2000 -1 -25.0000 48.0000 99 9.90000 -25.1124 48.1194 2 -25.0000 48.0000 EX 40 15 260
1975014S11091 1975 6 SI MM DEBORAH:ROBYN 1975-01-25 03:00:00 MX -25.2155 47.2936 main 30 11 P____P____P_P_ SH141975 -25.1998 47.3999 -1 -25.2343 47.1550 99 -25.2094 47.3584 2 -25.2343 47.1550 EX 37 15 258
1975014S11091 1975 6 SI MM DEBORAH:ROBYN 1975-01-25 06:00:00 MX -25.3800 46.5200 reunion main 24 11 O____O____O_O_ jtwc_sh SH141975 -25.3000 46.6000 -1 -25.5000 46.4000 4 9.90000 -25.3000 46.6000 2 -25.5000 46.4000 EX 35 14 257
1975014S11091 1975 6 SI MM DEBORAH:ROBYN 1975-01-25 09:00:00 MX -25.5304 45.7710 main 11 0 P____P____P_P_ SH141975 -25.4069 45.8500 -1 -25.7346 45.6695 4 -25.3691 45.8159 2 -25.7346 45.6695 EX 35 14 257
1975014S11091 1975 6 SI MM DEBORAH:ROBYN 1975-01-25 12:00:00 MX -25.6868 45.0467 reunion main 22 22 O____O____P_O_ jtwc_sh SH141975 -25.5000 45.1000 -1 -26.0000 45.0000 99 9.90000 -25.4338 45.0336 2 -26.0000 45.0000 EX 35 13 256
1975014S11091 1975 6 SI MM DEBORAH:ROBYN 1975-01-25 15:00:00 MX -25.8609 44.3377 main 67 67 P____P____P_P_ SH141975 -25.5498 44.2997 -1 -26.3491 44.4148 99 -25.5067 44.2595 2 -26.3491 44.4148 EX 35 13 255
1975014S11091 1975 6 SI MM DEBORAH:ROBYN 1975-01-25 18:00:00 MX -26.0400 43.6200 reunion main 111 111 O____O____O_O_ jtwc_sh SH141975 -25.6000 43.5000 -1 -26.7000 43.8000 99 9.90000 -25.6000 43.5000 2 -26.7000 43.8000 EX 35 14 257
1975014S11091 1975 6 SI MM DEBORAH:ROBYN 1975-01-25 21:00:00 MX -26.1797 42.8334 main 180 180 P____P____P_P_ SH141975 -25.6771 42.7348 -1 -26.9280 42.9991 99 -25.6882 42.6993 2 -26.9280 42.9991 EX 35 14 257
1975014S11091 1975 6 SI MM DEBORAH:ROBYN 1975-01-26 00:00:00 MX -26.3607 42.0644 reunion main 246 246 O____O____P_O_ jtwc_sh SH141975 -25.8000 42.0000 -1 -27.2000 42.2000 99 9.90000 -25.8033 41.9218 2 -27.2000 42.2000 EX 35 14 250
1975014S11091 1975 6 SI MM DEBORAH:ROBYN 1975-01-26 03:00:00 MX -26.6643 41.3421 main 330 330 P____P____P_P_ SH141975 -25.9549 41.2622 -1 -27.7225 41.4888 99 -25.9667 41.2085 2 -27.7225 41.4888 EX 35 13 241
1975014S11091 1975 6 SI MM DEBORAH:ROBYN 1975-01-26 06:00:00 MX -27.0000 40.7600 reunion main 389 389 O____O____O_O_ jtwc_sh SH141975 -26.2000 40.6000 -1 -28.2000 41.0000 3 9.90000 -26.2000 40.6000 2 -28.2000 41.0000 EX 35 11 235
1975014S11091 1975 6 SI MM DEBORAH:ROBYN 1975-01-26 09:00:00 MX -27.2659 40.3687 main 441 441 P____P____P_P_ SH141975 -26.5698 40.0253 -1 -28.3295 40.8591 3 -26.5307 40.0746 2 -28.3295 40.8591 EX 35 8 226
1975014S11091 1975 6 SI MM DEBORAH:ROBYN 1975-01-26 12:00:00 MX -27.5462 40.1324 reunion main 478 478 O____O____P_O_ jtwc_sh SH141975 -27.0000 39.6000 -1 -28.4000 40.9000 99 9.90000 -26.9308 39.6621 2 -28.4000 40.9000 EX 35 7 209
1975014S11091 1975 6 SI MM DEBORAH:ROBYN 1975-01-26 15:00:00 MX -27.9070 39.9665 main 512 512 P____P____P_P_ SH141975 -27.4072 39.3396 -1 -28.6775 40.8925 99 -27.3656 39.3684 2 -28.6775 40.8925 EX 35 8 197
1975014S11091 1975 6 SI MM DEBORAH:ROBYN 1975-01-26 18:00:00 MX -28.2800 39.8800 reunion main 549 549 O____O____O_O_ jtwc_sh SH141975 -27.8000 39.2000 -1 -29.0000 40.9000 99 9.90000 -27.8000 39.2000 2 -29.0000 40.9000 EX 35 7 193
1975014S11091 1975 6 SI MM DEBORAH:ROBYN 1975-01-26 21:00:00 MX -28.5970 39.7839 main 578 578 P____P____P_P_ SH141975 -28.1499 39.0328 -1 -29.2725 40.8925 99 -28.1401 39.0689 2 -29.2725 40.8925 EX 35 6 189
1975014S11091 1975 6 SI MM DEBORAH:ROBYN 1975-01-27 00:00:00 MX -28.8960 39.7737 reunion main 602 602 O____O____P_O_ jtwc_sh SH141975 -28.5000 39.0000 -1 -29.5000 40.9000 99 9.90000 -28.4802 39.0682 2 -29.5000 40.9000 EX 35 6 172
1975014S11091 1975 6 SI MM DEBORAH:ROBYN 1975-01-27 03:00:00 MX -29.1760 39.8739 main 619 619 P____P____P_P_ SH141975 -28.8622 39.1531 -1 -29.6500 40.9276 99 -28.8553 39.2083 2 -29.6500 40.9276 EX 35 7 155
1975014S11091 1975 6 SI MM DEBORAH:ROBYN 1975-01-27 06:00:00 MX -29.5000 40.1000 reunion main 632 632 O____O____O_O_ jtwc_sh SH141975 -29.3000 39.5000 -1 -29.8000 41.0000 3 9.90000 -29.3000 39.5000 2 -29.8000 41.0000 EX 35 9 147
1975014S11091 1975 6 SI MM DEBORAH:ROBYN 1975-01-27 09:00:00 MX -29.9270 40.4278 main 647 647 P____P____P_P_ SH141975 -29.8625 39.9900 -1 -30.0200 41.1202 3 -29.8698 39.9184 2 -30.0200 41.1202 EX 35 11 145
1975014S11091 1975 6 SI MM DEBORAH:ROBYN 1975-01-27 12:00:00 MX -30.4211 40.8575 reunion main 665 665 O____O____P_O_ jtwc_sh SH141975 -30.5000 40.6000 -1 -30.3000 41.3000 99 9.90000 -30.5055 40.4873 2 -30.3000 41.3000 EX 35 13 142
1975014S11091 1975 6 SI MM DEBORAH:ROBYN 1975-01-27 15:00:00 MX -30.9526 41.3436 main 704 700 P____P____P_P_ SH141975 -31.1648 41.2276 -1 -30.6351 41.5498 99 -31.1632 41.1631 2 -30.6351 41.5498 EX 35 14 141
1975014S11091 1975 6 SI MM DEBORAH:ROBYN 1975-01-27 18:00:00 MX -31.4800 41.8600 reunion main 733 733 O____O____O_O_ jtwc_sh SH141975 -31.8000 41.9000 -1 -31.0000 41.8000 99 9.90000 -31.8000 41.9000 2 -31.0000 41.8000 EX 35 13 140
1975014S11091 1975 6 SI MM DEBORAH:ROBYN 1975-01-27 21:00:00 MX -31.9301 42.3046 main 757 757 P____P____P_P_ SH141975 -32.3143 42.5717 -1 -31.3649 41.9503 99 -32.2920 42.4789 2 -31.3649 41.9503 EX 35 12 138
1975014S11091 1975 6 SI MM DEBORAH:ROBYN 1975-01-28 00:00:00 MX -32.3535 42.7849 reunion main 793 791 O____O____P_O_ jtwc_sh SH141975 -32.8000 43.3000 -1 -31.7000 42.1000 99 9.90000 -32.7673 43.1246 2 -31.7000 42.1000 EX 35 12 134
1975014S11091 1975 6 SI MM DEBORAH:ROBYN 1975-01-28 03:00:00 MX -32.7275 43.2962 main 813 813 P____P____P_P_ SH141975 -33.3101 44.0413 -1 -31.8663 42.2335 99 -33.2846 43.9317 2 -31.8663 42.2335 EX 32 14 129
1975014S11091 1975 6 SI MM DEBORAH:ROBYN 1975-01-28 06:00:00 MX -33.2200 44.0400 reunion main 856 856 O____O____O_O_ jtwc_sh SH141975 -33.9000 45.0000 -1 -32.2000 42.6000 5 9.90000 -33.9000 45.0000 2 -32.2000 42.6000 EX 30 20 129
1975014S11091 1975 6 SI MM DEBORAH:ROBYN 1975-01-28 09:00:00 MX -33.9713 45.1331 main 937 937 P____P____P_P_ SH141975 -34.5872 46.2672 -1 -33.0164 43.3621 5 -34.6492 46.4069 2 -33.0164 43.3621 EX 30 24 129
1975014S11091 1975 6 SI MM DEBORAH:ROBYN 1975-01-28 12:00:00 MX -34.7586 46.3373 reunion main 1029 1029 O____O____P_O_ jtwc_sh SH141975 -35.4000 47.9000 -1 -34.0000 44.5000 99 9.90000 -35.4985 48.1116 2 -34.0000 44.5000 EX 30 25 127
1975014S11091 1975 6 SI MM DEBORAH:ROBYN 1975-01-28 15:00:00 MX -35.4936 47.5896 main 1122 1122 P____P____P_P_ SH141975 -36.3294 49.8865 -1 -34.8495 45.8291 99 -36.3979 50.0377 2 -34.8495 45.8291 EX 30 25 123
1975014S11091 1975 6 SI MM DEBORAH:ROBYN 1975-01-28 18:00:00 MX -36.1100 48.8800 reunion main 1215 1215 O____O____O_O_ jtwc_sh SH141975 -37.3000 52.1000 -1 -35.6000 47.5000 99 9.90000 -37.3000 52.1000 6 -35.6000 47.5000 EX 30 17 115
1975014S11091 1975 6 SI MM DEBORAH:ROBYN 1975-01-28 21:00:00 ET -36.2254 49.5468 main 1242 1242 _____P______P_ SH141975 -1 -36.2359 49.5690 99 6 -36.2043 49.5025 EX 27 23 105
1975014S11091 1975 6 SI MM DEBORAH:ROBYN 1975-01-29 00:00:00 ET -36.7000 51.7000 reunion main 1364 1364 _____O______O_ -1 -36.7000 51.7000 99 9.90000 6 -36.7000 51.7000 EX 25 33 104
1975014S11091 1975 6 SI MM DEBORAH:ROBYN 1975-01-29 03:00:00 NR -36.9974 53.5103 main 1461 1461 _____P________ -1 -36.9974 53.5103 99 6 EX 28 100
1975014S11091 1975 6 SI MM DEBORAH:ROBYN 1975-01-29 06:00:00 TS -37.2000 55.1000 reunion main 1551 _____O________ -1 -37.2000 55.1000 6 9.90000 26 99

IBTrACS Databaseについて

本データベースは、米国NOAAが公開する1842年以降の世界の熱帯低気圧のベストトラックデータアーカイブInternational Best Track Archive for Climate Stewardship (IBTrACS)を、ウェブで閲覧しやすい形式に変換したものです。

最終更新日:2021-12-01